Time,TemperatureF,DewpointF,PressureIn,WindDirection,WindDirectionDegrees,WindSpeedMPH,WindSpeedGustMPH,Humidity,HourlyPrecipIn,Conditions,Clouds,dailyrainin,SoftwareType,DateUTC
2013-01-07 00:00:00,22.2,20.0,30.42,WSW,256,0.0,0.0,91,0.00,,CLR,0.00,VWS V14.01,2013-01-07 05:00:00,
2013-01-07 00:03:00,23.1,20.4,30.43,SW,231,1.2,3.8,89,0.00,,OVC014,0.04,VWS V14.01,2013-01-07 05:03:00,
2013-01-07 00:08:00,23.1,20.4,30.43,SW,235,0.0,3.8,89,0.00,,OVC014,0.04,VWS V14.01,2013-01-07 05:08:00,
2013-01-07 00:13:00,22.9,20.1,30.43,SW,235,0.0,0.0,89,0.00,,OVC014,0.04,VWS V14.01,2013-01-07 05:13:00,
2013-01-07 00:15:00,22.3,20.1,30.42,WSW,248,0.0,1.2,91,0.00,,CLR,0.00,VWS V14.01,2013-01-07 05:15:00,
2013-01-07 00:18:00,22.8,20.3,30.43,WSW,239,0.0,1.2,90,0.00,,OVC014,0.04,VWS V14.01,2013-01-07 05:18:00,
2013-01-07 00:23:00,22.9,20.4,30.43,WSW,239,0.0,1.2,90,0.00,,OVC014,0.04,VWS V14.01,2013-01-07 05:23:00,
2013-01-07 00:28:00,22.9,20.4,30.43,West,261,1.2,2.5,90,0.00,,OVC014,0.04,VWS V14.01,2013-01-07 05:28:00,
2013-01-07 00:30:00,22.4,20.2,30.43,WSW,246,0.0,1.2,91,0.00,,CLR,0.00,VWS V14.01,2013-01-07 05:30:00,
2013-01-07 00:33:00,22.8,20.3,30.43,WSW,251,0.0,2.5,90,0.00,,OVC014,0.04,VWS V14.01,2013-01-07 05:33:00,
2013-01-07 00:38:00,22.6,20.1,30.43,WSW,256,0.0,2.5,90,0.00,,OVC014,0.04,VWS V14.01,2013-01-07 05:38:00,
2013-01-07 00:43:00,22.5,20.0,30.42,WSW,256,0.0,0.0,90,0.00,,OVC014,0.04,VWS V14.01,2013-01-07 05:43:00,
2013-01-07 00:45:00,22.3,20.1,30.43,SW,225,0.0,2.5,91,0.00,,CLR,0.00,VWS V14.01,2013-01-07 05:45:00,
2013-01-07 00:48:00,22.3,20.1,30.42,WSW,256,0.0,0.0,91,0.00,,OVC014,0.04,VWS V14.01,2013-01-07 05:48:00,
2013-01-07 00:53:00,22.2,20.0,30.42,WSW,256,0.0,0.0,91,0.00,,OVC014,0.04,VWS V14.01,2013-01-07 05:53:00,
2013-01-07 00:58:00,22.2,20.0,30.42,West,264,0.0,0.0,91,0.00,,OVC014,0.00,VWS V14.01,2013-01-07 05:58:00,
2013-01-07 01:00:00,22.3,20.1,30.43,WSW,248,0.0,1.2,91,0.00,,CLR,0.00,VWS V14.01,2013-01-07 06:00:00,
2013-01-07 01:03:00,22.4,20.2,30.42,West,262,0.0,1.2,91,0.00,,OVC014,0.00,VWS V14.01,2013-01-07 06:03:00,
2013-01-07 01:08:00,22.3,20.1,30.42,WSW,248,1.2,1.2,91,0.00,,OVC014,0.00,VWS V14.01,2013-01-07 06:08:00,
2013-01-07 01:13:00,22.3,20.1,30.42,WSW,249,0.0,0.0,91,0.00,,OVC014,0.00,VWS V14.01,2013-01-07 06:13:00,
2013-01-07 01:15:00,22.2,20.2,30.43,SW,232,0.0,1.2,92,0.00,,CLR,0.00,VWS V14.01,2013-01-07 06:15:00,
2013-01-07 01:18:00,22.2,20.2,30.43,WNW,290,0.0,1.2,92,0.00,,OVC014,0.00,VWS V14.01,2013-01-07 06:18:00,
2013-01-07 01:23:00,22.4,20.4,30.43,West,259,0.0,1.2,92,0.00,,OVC014,0.00,VWS V14.01,2013-01-07 06:23:00,
2013-01-07 01:28:00,22.3,20.1,30.43,WSW,248,0.0,1.2,91,0.00,,OVC014,0.00,VWS V14.01,2013-01-07 06:28:00,
2013-01-07 01:30:00,22.2,20.2,30.44,SW,226,1.2,2.5,92,0.00,,CLR,0.00,VWS V14.01,2013-01-07 06:30:00,
2013-01-07 01:33:00,22.3,20.1,30.43,SSW,212,0.0,1.2,91,0.00,,OVC014,0.00,VWS V14.01,2013-01-07 06:33:00,
2013-01-07 01:38:00,22.3,20.1,30.43,SW,225,0.0,2.5,91,0.00,,CLR,0.00,VWS V14.01,2013-01-07 06:38:00,
2013-01-07 01:43:00,22.3,20.3,30.43,SW,225,0.0,0.0,92,0.00,,CLR,0.00,VWS V14.01,2013-01-07 06:43:00,
2013-01-07 01:45:00,22.5,20.5,30.44,SW,221,1.2,2.5,92,0.00,,CLR,0.00,VWS V14.01,2013-01-07 06:45:00,
2013-01-07 01:48:00,22.3,20.3,30.43,WSW,239,0.0,1.2,92,0.00,,CLR,0.00,VWS V14.01,2013-01-07 06:48:00,
2013-01-07 01:53:00,22.3,20.3,30.42,WSW,248,0.0,1.2,92,0.00,,CLR,0.00,VWS V14.01,2013-01-07 06:53:00,
2013-01-07 01:58:00,22.3,20.3,30.43,WSW,248,0.0,1.2,92,0.00,,CLR,0.00,VWS V14.01,2013-01-07 06:58:00,
2013-01-07 02:00:00,22.4,20.2,30.45,WSW,257,1.2,1.2,91,0.00,,CLR,0.00,VWS V14.01,2013-01-07 07:00:00,
2013-01-07 02:03:00,22.3,20.3,30.43,WSW,257,0.0,1.2,92,0.00,,CLR,0.00,VWS V14.01,2013-01-07 07:03:00,
2013-01-07 02:08:00,22.3,20.3,30.43,SW,232,0.0,1.2,92,0.00,,CLR,0.00,VWS V14.01,2013-01-07 07:08:00,
2013-01-07 02:13:00,22.1,19.9,30.43,SW,232,1.2,1.2,91,0.00,,CLR,0.00,VWS V14.01,2013-01-07 07:13:00,
2013-01-07 02:15:00,22.0,20.0,30.44,WSW,245,0.0,1.2,92,0.00,,CLR,0.00,VWS V14.01,2013-01-07 07:15:00,
2013-01-07 02:18:00,22.0,20.0,30.43,SW,221,0.0,1.2,92,0.00,,CLR,0.00,VWS V14.01,2013-01-07 07:18:00,
2013-01-07 02:23:00,22.1,20.1,30.44,SW,218,2.5,2.5,92,0.00,,CLR,0.00,VWS V14.01,2013-01-07 07:23:00,
2013-01-07 02:28:00,22.4,20.4,30.44,SSW,208,2.5,2.5,92,0.00,,CLR,0.00,VWS V14.01,2013-01-07 07:28:00,
2013-01-07 02:30:00,21.7,19.7,30.45,WSW,258,0.0,1.2,92,0.00,,CLR,0.00,VWS V14.01,2013-01-07 07:30:00,
2013-01-07 02:33:00,22.4,20.2,30.44,SW,218,0.0,2.5,91,0.00,,,0.00,VWS V14.01,2013-01-07 07:33:00,
2013-01-07 02:38:00,22.5,20.5,30.44,SSW,211,0.0,2.5,92,0.00,,,0.00,VWS V14.01,2013-01-07 07:38:00,
2013-01-07 02:43:00,22.5,20.5,30.44,WSW,248,0.0,1.2,92,0.00,,,0.00,VWS V14.01,2013-01-07 07:43:00,
2013-01-07 02:45:00,22.0,20.0,30.45,SW,227,0.0,2.5,92,0.00,,CLR,0.00,VWS V14.01,2013-01-07 07:45:00,
2013-01-07 02:48:00,22.5,20.3,30.45,WSW,249,0.0,1.2,91,0.00,,,0.00,VWS V14.01,2013-01-07 07:48:00,
2013-01-07 02:53:00,22.5,20.3,30.45,WSW,248,0.0,1.2,91,0.00,,,0.00,VWS V14.01,2013-01-07 07:53:00,
2013-01-07 02:58:00,22.3,20.1,30.45,WSW,257,0.0,1.2,91,0.00,,,0.00,VWS V14.01,2013-01-07 07:58:00,
2013-01-07 03:00:00,21.9,19.9,30.45,SSE,159,0.0,2.5,92,0.00,,CLR,0.00,VWS V14.01,2013-01-07 08:00:00,
2013-01-07 03:03:00,22.2,20.2,30.45,WSW,252,0.0,1.2,92,0.00,,,0.00,VWS V14.01,2013-01-07 08:03:00,
2013-01-07 03:08:00,22.1,20.1,30.45,WSW,245,0.0,1.2,92,0.00,,,0.00,VWS V14.01,2013-01-07 08:08:00,
2013-01-07 03:13:00,22.0,20.0,30.44,WSW,245,0.0,0.0,92,0.00,,,0.00,VWS V14.01,2013-01-07 08:13:00,
2013-01-07 03:15:00,21.9,20.2,30.45,South,191,0.0,1.2,93,0.00,,CLR,0.00,VWS V14.01,2013-01-07 08:15:00,
2013-01-07 03:18:00,21.9,19.9,30.45,WSW,245,0.0,0.0,92,0.00,,,0.00,VWS V14.01,2013-01-07 08:18:00,
2013-01-07 03:23:00,21.7,19.7,30.45,SW,227,0.0,1.2,92,0.00,,,0.00,VWS V14.01,2013-01-07 08:23:00,
2013-01-07 03:28:00,21.8,20.1,30.45,SSW,212,1.2,1.2,93,0.00,,,0.00,VWS V14.01,2013-01-07 08:28:00,
2013-01-07 03:30:00,21.8,20.1,30.45,WSW,245,0.0,1.2,93,0.00,,CLR,0.00,VWS V14.01,2013-01-07 08:30:00,
2013-01-07 03:33:00,21.9,20.2,30.45,SW,221,0.0,2.5,93,0.00,,,0.00,VWS V14.01,2013-01-07 08:33:00,
2013-01-07 03:38:00,22.0,20.0,30.45,SW,217,0.0,2.5,92,0.00,,,0.00,VWS V14.01,2013-01-07 08:38:00,
2013-01-07 03:43:00,22.0,20.0,30.45,SW,232,0.0,2.5,92,0.00,,,0.00,VWS V14.01,2013-01-07 08:43:00,
2013-01-07 03:45:00,21.7,20.0,30.46,South,176,1.2,2.5,93,0.00,,CLR,0.00,VWS V14.01,2013-01-07 08:45:00,
2013-01-07 03:48:00,21.9,19.9,30.45,SW,231,0.0,2.5,92,0.00,,,0.00,VWS V14.01,2013-01-07 08:48:00,
2013-01-07 03:53:00,21.9,20.2,30.45,WSW,248,0.0,2.5,93,0.00,,,0.00,VWS V14.01,2013-01-07 08:53:00,
2013-01-07 03:58:00,21.9,19.9,30.45,SW,225,0.0,1.2,92,0.00,,,0.00,VWS V14.01,2013-01-07 08:58:00,
2013-01-07 04:00:00,21.0,19.3,30.46,SW,214,2.5,2.5,93,0.00,,CLR,0.00,VWS V14.01,2013-01-07 09:00:00,
2013-01-07 04:03:00,21.9,19.9,30.45,SW,222,0.0,1.2,92,0.00,,,0.00,VWS V14.01,2013-01-07 09:03:00,
2013-01-07 04:08:00,21.9,20.2,30.45,SW,225,0.0,1.2,93,0.00,,,0.00,VWS V14.01,2013-01-07 09:08:00,
2013-01-07 04:13:00,21.8,20.1,30.45,SW,215,1.2,1.2,93,0.00,,,0.00,VWS V14.01,2013-01-07 09:13:00,
2013-01-07 04:15:00,20.7,19.0,30.46,South,172,1.2,2.5,93,0.00,,CLR,0.00,VWS V14.01,2013-01-07 09:15:00,
2013-01-07 04:18:00,21.8,20.1,30.45,SW,217,0.0,1.2,93,0.00,,,0.00,VWS V14.01,2013-01-07 09:18:00,
2013-01-07 04:23:00,21.7,20.0,30.45,SW,219,1.2,1.2,93,0.00,,,0.00,VWS V14.01,2013-01-07 09:23:00,
2013-01-07 04:28:00,21.8,20.1,30.45,SW,235,0.0,1.2,93,0.00,,,0.00,VWS V14.01,2013-01-07 09:28:00,
2013-01-07 04:30:00,20.5,18.8,30.47,SW,217,1.2,2.5,93,0.00,,CLR,0.00,VWS V14.01,2013-01-07 09:30:00,
2013-01-07 04:33:00,21.8,20.1,30.45,South,188,0.0,2.5,93,0.00,,,0.00,VWS V14.01,2013-01-07 09:33:00,
2013-01-07 04:38:00,21.7,20.0,30.46,South,191,1.2,2.5,93,0.00,,,0.00,VWS V14.01,2013-01-07 09:38:00,
2013-01-07 04:43:00,21.6,19.6,30.45,South,188,1.2,2.5,92,0.00,,,0.00,VWS V14.01,2013-01-07 09:43:00,
2013-01-07 04:45:00,20.8,19.4,30.48,SSW,194,0.0,3.8,94,0.00,,CLR,0.00,VWS V14.01,2013-01-07 09:45:00,
2013-01-07 04:48:00,21.4,19.4,30.45,SSW,198,1.2,2.5,92,0.00,,,0.00,VWS V14.01,2013-01-07 09:48:00,
2013-01-07 04:53:00,21.1,19.1,30.46,SSW,210,2.5,2.5,92,0.00,,,0.00,VWS V14.01,2013-01-07 09:53:00,
2013-01-07 04:58:00,21.0,19.3,30.46,SSW,211,2.5,2.5,93,0.00,,,0.00,VWS V14.01,2013-01-07 09:58:00,
2013-01-07 05:00:00,21.1,19.6,30.48,SW,215,2.5,5.0,94,0.00,,CLR,0.00,VWS V14.01,2013-01-07 10:00:00,
2013-01-07 05:03:00,20.9,19.2,30.46,SSW,201,1.2,2.5,93,0.00,,,0.00,VWS V14.01,2013-01-07 10:03:00,
2013-01-07 05:08:00,20.8,19.1,30.47,South,187,1.2,2.5,93,0.00,,,0.00,VWS V14.01,2013-01-07 10:08:00,
2013-01-07 05:13:00,20.6,18.9,30.47,South,169,1.2,1.2,93,0.00,,,0.00,VWS V14.01,2013-01-07 10:13:00,
2013-01-07 05:15:00,21.4,19.9,30.49,SSE,159,1.2,3.8,94,0.00,,CLR,0.00,VWS V14.01,2013-01-07 10:15:00,
2013-01-07 05:18:00,20.5,18.8,30.47,SSW,210,1.2,2.5,93,0.00,,,0.00,VWS V14.01,2013-01-07 10:18:00,
2013-01-07 05:23:00,20.4,18.7,30.47,SSW,205,2.5,2.5,93,0.00,,,0.00,VWS V14.01,2013-01-07 10:23:00,
2013-01-07 05:28:00,20.5,19.0,30.47,SW,222,2.5,3.8,94,0.00,,,0.00,VWS V14.01,2013-01-07 10:28:00,
2013-01-07 05:30:00,21.2,19.5,30.50,SSW,211,0.0,2.5,93,0.00,,CLR,0.00,VWS V14.01,2013-01-07 10:30:00,
2013-01-07 05:33:00,20.6,19.1,30.47,SSW,194,1.2,3.8,94,0.00,,,0.00,VWS V14.01,2013-01-07 10:33:00,
2013-01-07 05:38:00,20.7,19.2,30.48,WSW,240,0.0,3.8,94,0.00,,,0.00,VWS V14.01,2013-01-07 10:38:00,
2013-01-07 05:43:00,20.9,19.5,30.48,SW,235,0.0,1.2,94,0.00,,,0.00,VWS V14.01,2013-01-07 10:43:00,
2013-01-07 05:45:00,21.1,19.4,30.50,South,191,1.2,2.5,93,0.00,,CLR,0.00,VWS V14.01,2013-01-07 10:45:00,
2013-01-07 05:48:00,21.0,19.5,30.48,SW,216,1.2,2.5,94,0.00,,,0.00,VWS V14.01,2013-01-07 10:48:00,
2013-01-07 05:53:00,21.0,19.5,30.48,SSW,207,0.0,2.5,94,0.00,,,0.00,VWS V14.01,2013-01-07 10:53:00,
2013-01-07 05:58:00,21.2,19.8,30.48,SW,215,0.0,2.5,94,0.00,,,0.00,VWS V14.01,2013-01-07 10:58:00,
2013-01-07 06:00:00,20.4,18.7,30.50,South,191,0.0,1.2,93,0.00,,CLR,0.00,VWS V14.01,2013-01-07 11:00:00,
2013-01-07 06:03:00,21.3,19.9,30.49,WSW,249,0.0,3.8,94,0.00,,,0.00,VWS V14.01,2013-01-07 11:03:00,
2013-01-07 06:08:00,21.4,19.9,30.49,SSW,210,0.0,3.8,94,0.00,,,0.00,VWS V14.01,2013-01-07 11:08:00,
2013-01-07 06:13:00,21.4,19.7,30.49,SSW,200,1.2,2.5,93,0.00,,,0.00,VWS V14.01,2013-01-07 11:13:00,
2013-01-07 06:15:00,19.8,18.4,30.50,South,191,0.0,0.0,94,0.00,,CLR,0.00,VWS V14.01,2013-01-07 11:15:00,
2013-01-07 06:18:00,21.4,19.7,30.49,SSW,205,0.0,2.5,93,0.00,,,0.00,VWS V14.01,2013-01-07 11:18:00,
2013-01-07 06:23:00,21.2,19.5,30.49,SSW,208,1.2,2.5,93,0.00,,,0.00,VWS V14.01,2013-01-07 11:23:00,
2013-01-07 06:28:00,21.2,19.5,30.50,SSW,206,1.2,2.5,93,0.00,,,0.00,VWS V14.01,2013-01-07 11:28:00,
2013-01-07 06:30:00,20.0,18.8,30.50,SSW,204,0.0,1.2,95,0.00,,CLR,0.00,VWS V14.01,2013-01-07 11:30:00,
2013-01-07 06:33:00,21.2,19.5,30.50,SSW,195,1.2,2.5,93,0.00,,,0.00,VWS V14.01,2013-01-07 11:33:00,
2013-01-07 06:38:00,21.1,19.4,30.50,South,188,1.2,2.5,93,0.00,,,0.00,VWS V14.01,2013-01-07 11:38:00,
2013-01-07 06:43:00,21.1,19.4,30.50,South,191,0.0,1.2,93,0.00,,,0.00,VWS V14.01,2013-01-07 11:43:00,
2013-01-07 06:45:00,19.8,18.4,30.50,SSW,204,0.0,0.0,94,0.00,,CLR,0.00,VWS V14.01,2013-01-07 11:45:00,
2013-01-07 06:48:00,20.8,19.1,30.50,South,191,0.0,1.2,93,0.00,,,0.00,VWS V14.01,2013-01-07 11:48:00,
2013-01-07 06:53:00,20.6,18.9,30.50,South,191,0.0,1.2,93,0.00,,,0.00,VWS V14.01,2013-01-07 11:53:00,
2013-01-07 06:58:00,20.3,18.6,30.50,South,191,0.0,0.0,93,0.00,,,0.00,VWS V14.01,2013-01-07 11:58:00,
2013-01-07 07:00:00,19.8,18.4,30.51,SSW,204,0.0,0.0,94,0.00,,CLR,0.00,VWS V14.01,2013-01-07 12:00:00,
2013-01-07 07:03:00,20.1,18.4,30.50,South,191,0.0,0.0,93,0.00,,,0.00,VWS V14.01,2013-01-07 12:03:00,
2013-01-07 07:08:00,19.9,18.5,30.50,South,191,0.0,0.0,94,0.00,,,0.00,VWS V14.01,2013-01-07 12:08:00,
2013-01-07 07:13:00,19.8,18.4,30.50,SSW,193,0.0,0.0,94,0.00,,,0.00,VWS V14.01,2013-01-07 12:13:00,
2013-01-07 07:15:00,19.5,18.1,30.51,SSW,201,0.0,0.0,94,0.00,,CLR,0.00,VWS V14.01,2013-01-07 12:15:00,
2013-01-07 07:18:00,19.8,18.4,30.50,SSW,193,0.0,0.0,94,0.00,,,0.00,VWS V14.01,2013-01-07 12:18:00,
2013-01-07 07:23:00,20.0,18.8,30.50,SSW,205,1.2,1.2,95,0.00,,,0.00,VWS V14.01,2013-01-07 12:23:00,
2013-01-07 07:28:00,20.0,18.8,30.50,SSW,204,0.0,0.0,95,0.00,,,0.00,VWS V14.01,2013-01-07 12:28:00,
2013-01-07 07:30:00,19.3,17.9,30.51,SSW,201,0.0,0.0,94,0.00,,CLR,0.00,VWS V14.01,2013-01-07 12:30:00,
2013-01-07 07:33:00,19.9,18.5,30.50,SSW,204,0.0,0.0,94,0.00,,CLR,0.00,VWS V14.01,2013-01-07 12:33:00,
2013-01-07 07:38:00,19.8,18.4,30.50,SSW,204,0.0,0.0,94,0.00,,CLR,0.00,VWS V14.01,2013-01-07 12:38:00,
2013-01-07 07:43:00,19.7,18.3,30.51,SSW,204,0.0,0.0,94,0.00,,CLR,0.00,VWS V14.01,2013-01-07 12:43:00,
2013-01-07 07:45:00,19.4,18.0,30.51,SE,131,0.0,0.0,94,0.00,,CLR,0.00,VWS V14.01,2013-01-07 12:45:00,
2013-01-07 07:48:00,19.8,18.4,30.51,SSW,204,0.0,0.0,94,0.00,,CLR,0.00,VWS V14.01,2013-01-07 12:48:00,
2013-01-07 07:53:00,19.8,18.4,30.50,SSW,205,0.0,0.0,94,0.00,,CLR,0.00,VWS V14.01,2013-01-07 12:53:00,
2013-01-07 07:58:00,19.7,18.3,30.51,SSW,204,0.0,0.0,94,0.00,,CLR,0.00,VWS V14.01,2013-01-07 12:58:00,
2013-01-07 08:00:00,19.7,18.3,30.51,SSE,148,0.0,0.0,94,0.00,,CLR,0.00,VWS V14.01,2013-01-07 13:00:00,
2013-01-07 08:03:00,19.6,18.2,30.51,SSW,201,0.0,0.0,94,0.00,,CLR,0.00,VWS V14.01,2013-01-07 13:03:00,
2013-01-07 08:08:00,19.6,18.2,30.51,SSW,201,0.0,0.0,94,0.00,,CLR,0.00,VWS V14.01,2013-01-07 13:08:00,
2013-01-07 08:13:00,19.6,18.2,30.51,SSW,201,0.0,0.0,94,0.00,,CLR,0.00,VWS V14.01,2013-01-07 13:13:00,
2013-01-07 08:15:00,20.5,19.0,30.51,SE,139,0.0,0.0,94,0.00,,CLR,0.00,VWS V14.01,2013-01-07 13:15:00,
2013-01-07 08:18:00,19.5,18.1,30.51,SSW,201,0.0,0.0,94,0.00,,CLR,0.00,VWS V14.01,2013-01-07 13:18:00,
2013-01-07 08:23:00,19.4,18.0,30.51,SSW,201,0.0,0.0,94,0.00,,CLR,0.00,VWS V14.01,2013-01-07 13:23:00,
2013-01-07 08:28:00,19.2,17.8,30.51,SSW,201,0.0,0.0,94,0.00,,CLR,0.00,VWS V14.01,2013-01-07 13:28:00,
2013-01-07 08:30:00,21.9,20.4,30.51,SE,141,0.0,0.0,94,0.00,,CLR,0.00,VWS V14.01,2013-01-07 13:30:00,
2013-01-07 08:33:00,19.2,17.8,30.51,SE,131,0.0,0.0,94,0.00,,,0.00,VWS V14.01,2013-01-07 13:33:00,
2013-01-07 08:38:00,19.3,17.9,30.51,SE,131,0.0,0.0,94,0.00,,,0.00,VWS V14.01,2013-01-07 13:38:00,
2013-01-07 08:43:00,19.5,18.1,30.51,SE,131,0.0,0.0,94,0.00,,,0.00,VWS V14.01,2013-01-07 13:43:00,
2013-01-07 08:45:00,23.5,21.5,30.51,SSE,149,0.0,0.0,92,0.00,,CLR,0.00,VWS V14.01,2013-01-07 13:45:00,
2013-01-07 08:48:00,19.6,18.2,30.51,SSE,148,0.0,0.0,94,0.00,,,0.00,VWS V14.01,2013-01-07 13:48:00,
2013-01-07 08:53:00,19.7,18.3,30.51,SSE,148,0.0,0.0,94,0.00,,,0.00,VWS V14.01,2013-01-07 13:53:00,
2013-01-07 08:58:00,19.8,18.4,30.51,SSE,148,0.0,0.0,94,0.00,,,0.00,VWS V14.01,2013-01-07 13:58:00,
2013-01-07 09:00:00,23.4,21.2,30.51,ESE,110,0.0,0.0,91,0.00,,CLR,0.00,VWS V14.01,2013-01-07 14:00:00,
2013-01-07 09:03:00,20.0,18.5,30.52,SE,141,0.0,0.0,94,0.00,,,0.00,VWS V14.01,2013-01-07 14:03:00,
2013-01-07 09:08:00,20.3,18.9,30.51,SE,139,0.0,0.0,94,0.00,,,0.00,VWS V14.01,2013-01-07 14:08:00,
2013-01-07 09:13:00,20.7,19.2,30.51,SE,141,0.0,0.0,94,0.00,,,0.00,VWS V14.01,2013-01-07 14:13:00,
2013-01-07 09:15:00,24.4,22.2,30.50,ESE,113,0.0,2.5,91,0.00,,CLR,0.00,VWS V14.01,2013-01-07 14:15:00,
2013-01-07 09:18:00,21.1,19.6,30.51,SE,141,0.0,0.0,94,0.00,,,0.00,VWS V14.01,2013-01-07 14:18:00,
2013-01-07 09:23:00,21.6,20.1,30.51,SE,141,0.0,0.0,94,0.00,,,0.00,VWS V14.01,2013-01-07 14:23:00,
2013-01-07 09:28:00,22.1,20.6,30.51,SW,219,0.0,0.0,94,0.00,,,0.00,VWS V14.01,2013-01-07 14:28:00,
2013-01-07 09:30:00,25.8,23.3,30.50,SSE,167,0.0,1.2,90,0.00,,CLR,0.00,VWS V14.01,2013-01-07 14:30:00,
2013-01-07 09:33:00,22.5,20.8,30.51,SW,217,0.0,0.0,93,0.00,,,0.00,VWS V14.01,2013-01-07 14:33:00,
2013-01-07 09:38:00,23.4,21.7,30.51,SSE,149,0.0,0.0,93,0.00,,,0.00,VWS V14.01,2013-01-07 14:38:00,
2013-01-07 09:43:00,23.6,21.6,30.50,SE,130,0.0,0.0,92,0.00,,,0.00,VWS V14.01,2013-01-07 14:43:00,
2013-01-07 09:45:00,26.4,23.3,30.51,South,186,2.5,3.8,88,0.00,,CLR,0.00,VWS V14.01,2013-01-07 14:45:00,
2013-01-07 09:48:00,23.5,21.3,30.50,ESE,108,0.0,0.0,91,0.00,,,0.00,VWS V14.01,2013-01-07 14:48:00,
2013-01-07 09:53:00,23.4,21.2,30.50,ESE,108,0.0,0.0,91,0.00,,,0.00,VWS V14.01,2013-01-07 14:53:00,
2013-01-07 09:58:00,23.4,21.2,30.50,ESE,110,0.0,0.0,91,0.00,,,0.00,VWS V14.01,2013-01-07 14:58:00,
2013-01-07 10:00:00,27.3,23.7,30.51,SW,219,3.8,7.5,86,0.00,,CLR,0.00,VWS V14.01,2013-01-07 15:00:00,
2013-01-07 10:03:00,23.8,21.8,30.50,ESE,110,0.0,0.0,92,0.00,,,0.00,VWS V14.01,2013-01-07 15:03:00,
2013-01-07 10:08:00,24.3,22.3,30.50,ESE,119,0.0,0.0,92,0.00,,,0.00,VWS V14.01,2013-01-07 15:08:00,
2013-01-07 10:13:00,24.5,22.2,30.50,SE,142,1.2,1.2,91,0.00,,,0.00,VWS V14.01,2013-01-07 15:13:00,
2013-01-07 10:15:00,28.6,24.4,30.52,East,90,2.5,6.2,84,0.00,,CLR,0.00,VWS V14.01,2013-01-07 15:15:00,
2013-01-07 10:18:00,25.0,22.8,30.50,SSW,193,1.2,1.2,91,0.00,,,0.00,VWS V14.01,2013-01-07 15:18:00,
2013-01-07 10:23:00,25.6,23.1,30.50,SSE,167,0.0,1.2,90,0.00,,,0.00,VWS V14.01,2013-01-07 15:23:00,
2013-01-07 10:28:00,25.9,23.1,30.50,SSE,156,1.2,1.2,89,0.00,,,0.00,VWS V14.01,2013-01-07 15:28:00,
2013-01-07 10:30:00,30.2,24.8,30.52,SSE,158,2.5,5.0,80,0.00,,CLR,0.00,VWS V14.01,2013-01-07 15:30:00,
2013-01-07 10:33:00,26.0,23.2,30.51,SE,135,0.0,1.2,89,0.00,,,0.00,VWS V14.01,2013-01-07 15:33:00,
2013-01-07 10:38:00,26.3,23.2,30.51,SW,225,1.2,2.5,88,0.00,,,0.00,VWS V14.01,2013-01-07 15:38:00,
2013-01-07 10:43:00,26.5,23.2,30.51,SSE,155,3.8,5.0,87,0.00,,,0.00,VWS V14.01,2013-01-07 15:43:00,
2013-01-07 10:45:00,30.9,24.5,30.51,SE,143,1.2,8.8,77,0.00,,CLR,0.00,VWS V14.01,2013-01-07 15:45:00,
2013-01-07 10:48:00,26.9,23.6,30.51,South,180,3.8,5.0,87,0.00,,,0.00,VWS V14.01,2013-01-07 15:48:00,
2013-01-07 10:53:00,27.2,23.6,30.51,SSE,152,3.8,7.5,86,0.00,,,0.00,VWS V14.01,2013-01-07 15:53:00,
2013-01-07 10:58:00,27.5,23.9,30.51,SSW,201,3.8,6.2,86,0.00,,,0.00,VWS V14.01,2013-01-07 15:58:00,
2013-01-07 11:00:00,32.2,25.2,30.51,SW,235,2.5,11.2,75,0.00,,CLR,0.00,VWS V14.01,2013-01-07 16:00:00,
2013-01-07 11:03:00,27.9,24.0,30.51,SW,223,2.5,6.2,85,0.00,,,0.00,VWS V14.01,2013-01-07 16:03:00,
2013-01-07 11:08:00,28.4,24.2,30.52,SW,218,2.5,6.2,84,0.00,,,0.00,VWS V14.01,2013-01-07 16:08:00,
2013-01-07 11:13:00,28.9,24.4,30.52,SSW,210,0.0,2.5,83,0.00,,,0.00,VWS V14.01,2013-01-07 16:13:00,
2013-01-07 11:15:00,32.8,25.4,30.50,SSW,208,3.8,8.8,74,0.00,,CLR,0.00,VWS V14.01,2013-01-07 16:15:00,
2013-01-07 11:18:00,29.4,24.6,30.52,SW,227,1.2,3.8,82,0.00,,,0.00,VWS V14.01,2013-01-07 16:18:00,
2013-01-07 11:23:00,30.0,24.9,30.52,SSW,193,3.8,5.0,81,0.00,,,0.00,VWS V14.01,2013-01-07 16:23:00,
2013-01-07 11:28:00,30.5,25.1,30.52,WSW,241,5.0,6.2,80,0.00,,,0.00,VWS V14.01,2013-01-07 16:28:00,
2013-01-07 11:30:00,33.8,25.8,30.48,SSW,194,2.5,6.2,72,0.00,,CLR,0.00,VWS V14.01,2013-01-07 16:30:00,
2013-01-07 11:33:00,30.6,24.9,30.52,South,176,6.2,7.5,79,0.00,,,0.00,VWS V14.01,2013-01-07 16:33:00,
2013-01-07 11:38:00,30.8,24.8,30.51,SSW,197,7.5,8.8,78,0.00,,,0.00,VWS V14.01,2013-01-07 16:38:00,
2013-01-07 11:43:00,31.1,24.8,30.51,SSW,207,6.2,11.2,77,0.00,,,0.00,VWS V14.01,2013-01-07 16:43:00,
2013-01-07 11:45:00,34.4,25.6,30.47,SSW,204,3.8,7.5,70,0.00,,CLR,0.00,VWS V14.01,2013-01-07 16:45:00,
2013-01-07 11:48:00,31.5,24.8,30.51,SE,143,0.0,11.2,76,0.00,,,0.00,VWS V14.01,2013-01-07 16:48:00,
2013-01-07 11:53:00,32.0,25.3,30.51,SW,218,3.8,11.2,76,0.00,,,0.00,VWS V14.01,2013-01-07 16:53:00,
2013-01-07 11:58:00,32.4,25.4,30.51,SW,222,3.8,5.0,75,0.00,,,0.00,VWS V14.01,2013-01-07 16:58:00,
2013-01-07 12:00:00,35.1,25.6,30.46,South,172,3.8,12.5,68,0.00,,CLR,0.00,VWS V14.01,2013-01-07 17:00:00,
2013-01-07 12:03:00,32.6,25.2,30.50,SSW,194,5.0,8.8,74,0.00,,,0.00,VWS V14.01,2013-01-07 17:03:00,
2013-01-07 12:08:00,32.8,25.4,30.50,SSW,210,5.0,8.8,74,0.00,,,0.00,VWS V14.01,2013-01-07 17:08:00,
2013-01-07 12:13:00,32.9,25.2,30.50,SW,231,5.0,6.2,73,0.00,,,0.00,VWS V14.01,2013-01-07 17:13:00,
2013-01-07 12:15:00,35.9,25.3,30.45,ENE,72,3.8,15.0,65,0.00,,CLR,0.00,VWS V14.01,2013-01-07 17:15:00,
2013-01-07 12:18:00,33.2,25.2,30.49,SSW,198,2.5,6.2,72,0.00,,,0.00,VWS V14.01,2013-01-07 17:18:00,
2013-01-07 12:23:00,33.6,25.5,30.49,SSE,148,1.2,6.2,72,0.00,,,0.00,VWS V14.01,2013-01-07 17:23:00,
2013-01-07 12:28:00,33.9,25.5,30.48,SW,231,2.5,7.5,71,0.00,,,0.00,VWS V14.01,2013-01-07 17:28:00,
2013-01-07 12:30:00,36.3,26.0,30.44,SW,236,2.5,7.5,66,0.00,,CLR,0.00,VWS V14.01,2013-01-07 17:30:00,
2013-01-07 12:33:00,34.0,25.3,30.47,SE,127,2.5,7.5,70,0.00,,CLR,0.00,VWS V14.01,2013-01-07 17:33:00,
2013-01-07 12:38:00,34.3,25.5,30.47,SE,139,2.5,7.5,70,0.00,,CLR,0.00,VWS V14.01,2013-01-07 17:38:00,
2013-01-07 12:43:00,34.5,25.4,30.46,SE,145,7.5,8.8,69,0.00,,CLR,0.00,VWS V14.01,2013-01-07 17:43:00,
2013-01-07 12:45:00,36.7,25.7,30.43,SSW,197,2.5,15.0,64,0.00,,CLR,0.00,VWS V14.01,2013-01-07 17:45:00,
2013-01-07 12:48:00,34.8,25.7,30.46,SSW,200,5.0,8.8,69,0.00,,CLR,0.00,VWS V14.01,2013-01-07 17:48:00,
2013-01-07 12:53:00,35.0,25.5,30.46,ESE,106,1.2,12.5,68,0.00,,CLR,0.00,VWS V14.01,2013-01-07 17:53:00,
2013-01-07 12:58:00,35.3,25.8,30.45,SE,135,3.8,5.0,68,0.00,,CLR,0.00,VWS V14.01,2013-01-07 17:58:00,
2013-01-07 13:00:00,37.4,26.4,30.42,SSW,198,5.0,7.5,64,0.00,,CLR,0.00,VWS V14.01,2013-01-07 18:00:00,
2013-01-07 13:03:00,35.7,25.8,30.45,SSE,151,5.0,7.5,67,0.00,,CLR,0.00,VWS V14.01,2013-01-07 18:03:00,
2013-01-07 13:08:00,35.9,26.4,30.45,SSW,195,10.0,10.0,68,0.00,,CLR,0.00,VWS V14.01,2013-01-07 18:08:00,
2013-01-07 13:13:00,35.8,25.2,30.45,ESE,115,3.8,6.2,65,0.00,,CLR,0.00,VWS V14.01,2013-01-07 18:13:00,
2013-01-07 13:15:00,37.7,26.2,30.42,ENE,63,2.5,10.0,63,0.00,,CLR,0.00,VWS V14.01,2013-01-07 18:15:00,
2013-01-07 13:18:00,35.7,25.8,30.44,SSW,200,2.5,6.2,67,0.00,,CLR,0.00,VWS V14.01,2013-01-07 18:18:00,
2013-01-07 13:23:00,36.2,26.0,30.44,SSW,193,1.2,7.5,66,0.00,,CLR,0.00,VWS V14.01,2013-01-07 18:23:00,
2013-01-07 13:28:00,36.3,25.7,30.43,ESE,115,1.2,5.0,65,0.00,,CLR,0.00,VWS V14.01,2013-01-07 18:28:00,
2013-01-07 13:30:00,37.9,25.7,30.41,West,277,5.0,10.0,61,0.00,,CLR,0.00,VWS V14.01,2013-01-07 18:30:00,
2013-01-07 13:33:00,36.4,25.8,30.43,SE,142,3.8,15.0,65,0.00,,CLR,0.00,VWS V14.01,2013-01-07 18:33:00,
2013-01-07 13:38:00,36.7,25.7,30.43,SSE,160,5.0,15.0,64,0.00,,CLR,0.00,VWS V14.01,2013-01-07 18:38:00,
2013-01-07 13:43:00,36.9,26.2,30.43,SW,215,2.5,3.8,65,0.00,,CLR,0.00,VWS V14.01,2013-01-07 18:43:00,
2013-01-07 13:45:00,37.9,25.7,30.40,SE,125,2.5,6.2,61,0.01,,CLR,0.01,VWS V14.01,2013-01-07 18:45:00,
2013-01-07 13:48:00,37.0,26.0,30.43,South,190,1.2,7.5,64,0.00,,CLR,0.00,VWS V14.01,2013-01-07 18:48:00,
2013-01-07 13:53:00,37.3,26.3,30.43,WSW,242,2.5,7.5,64,0.00,,CLR,0.00,VWS V14.01,2013-01-07 18:53:00,
2013-01-07 13:58:00,37.4,25.6,30.42,SW,236,1.2,10.0,62,0.00,,CLR,0.00,VWS V14.01,2013-01-07 18:58:00,
2013-01-07 14:00:00,38.1,25.5,30.39,ESE,121,1.2,10.0,60,0.01,,CLR,0.01,VWS V14.01,2013-01-07 19:00:00,
2013-01-07 14:03:00,37.6,26.2,30.42,ESE,120,2.5,10.0,63,0.00,,CLR,0.00,VWS V14.01,2013-01-07 19:03:00,
2013-01-07 14:08:00,37.6,26.2,30.42,SE,132,0.0,10.0,63,0.00,,CLR,0.00,VWS V14.01,2013-01-07 19:08:00,
2013-01-07 14:13:00,37.9,26.8,30.41,ESE,120,3.8,5.0,64,0.00,,CLR,0.00,VWS V14.01,2013-01-07 19:13:00,
2013-01-07 14:15:00,37.9,25.7,30.38,WSW,244,1.2,5.0,61,0.01,,CLR,0.01,VWS V14.01,2013-01-07 19:15:00,
2013-01-07 14:18:00,37.8,26.0,30.41,SW,221,6.2,10.0,62,0.00,,CLR,0.00,VWS V14.01,2013-01-07 19:18:00,
2013-01-07 14:23:00,37.9,26.1,30.41,ESE,114,2.5,10.0,62,0.00,,CLR,0.00,VWS V14.01,2013-01-07 19:23:00,
2013-01-07 14:24:00,38.0,25.0,30.38,SE,136,1.2,5.0,59,0.01,,CLR,0.01,VWS V14.01,2013-01-07 19:24:00,
2013-01-07 14:25:00,38.1,25.5,30.38,ENE,63,3.8,5.0,60,0.01,,CLR,0.01,VWS V14.01,2013-01-07 19:25:00,
2013-01-07 14:26:00,38.0,25.0,30.38,East,83,1.2,8.8,59,0.01,,CLR,0.01,VWS V14.01,2013-01-07 19:26:00,
2013-01-07 14:27:00,38.0,25.4,30.38,East,89,1.2,8.8,60,0.01,,CLR,0.01,VWS V14.01,2013-01-07 19:27:00,
2013-01-07 14:28:00,37.9,26.1,30.40,WSW,257,2.5,5.0,62,0.00,,CLR,0.00,VWS V14.01,2013-01-07 19:28:00,
2013-01-07 14:30:00,38.0,25.4,30.38,SE,130,0.0,8.8,60,0.01,,CLR,0.01,VWS V14.01,2013-01-07 19:30:00,
2013-01-07 14:33:00,37.8,25.6,30.40,SE,124,0.0,6.2,61,0.00,,CLR,0.00,VWS V14.01,2013-01-07 19:33:00,
2013-01-07 14:38:00,37.8,25.6,30.40,SE,139,1.2,6.2,61,0.01,,CLR,0.01,VWS V14.01,2013-01-07 19:38:00,
2013-01-07 14:43:00,37.9,25.7,30.39,ENE,71,1.2,5.0,61,0.01,,CLR,0.01,VWS V14.01,2013-01-07 19:43:00,
2013-01-07 14:45:00,38.7,25.6,30.38,SE,141,2.5,10.0,59,0.01,,CLR,0.01,VWS V14.01,2013-01-07 19:45:00,
2013-01-07 14:48:00,38.0,25.8,30.39,SSE,162,3.8,7.5,61,0.01,,CLR,0.01,VWS V14.01,2013-01-07 19:48:00,
2013-01-07 14:53:00,38.3,26.4,30.39,East,83,2.5,10.0,62,0.01,,CLR,0.01,VWS V14.01,2013-01-07 19:53:00,
2013-01-07 14:58:00,38.0,25.8,30.39,SE,143,2.5,5.0,61,0.01,,CLR,0.01,VWS V14.01,2013-01-07 19:58:00,
2013-01-07 15:00:00,38.8,25.7,30.38,NNE,31,3.8,11.2,59,0.00,,CLR,0.01,VWS V14.01,2013-01-07 20:00:00,
2013-01-07 15:03:00,38.0,26.1,30.39,ESE,108,1.2,5.0,62,0.01,,CLR,0.01,VWS V14.01,2013-01-07 20:03:00,
2013-01-07 15:08:00,38.0,25.8,30.38,ENE,65,1.2,5.0,61,0.01,,CLR,0.01,VWS V14.01,2013-01-07 20:08:00,
2013-01-07 15:13:00,38.0,25.0,30.38,ENE,65,2.5,3.8,59,0.01,,CLR,0.01,VWS V14.01,2013-01-07 20:13:00,
2013-01-07 15:15:00,38.7,25.6,30.38,SE,142,0.0,8.8,59,0.00,,CLR,0.01,VWS V14.01,2013-01-07 20:15:00,
2013-01-07 15:18:00,38.0,25.4,30.38,ESE,120,5.0,5.0,60,0.01,,CLR,0.01,VWS V14.01,2013-01-07 20:18:00,
2013-01-07 15:23:00,38.0,25.4,30.38,ENE,76,2.5,8.8,60,0.01,,CLR,0.01,VWS V14.01,2013-01-07 20:23:00,
2013-01-07 15:28:00,38.1,26.2,30.38,SW,233,3.8,3.8,62,0.01,,CLR,0.01,VWS V14.01,2013-01-07 20:28:00,
2013-01-07 15:30:00,38.3,26.0,30.37,SW,224,1.2,10.0,61,0.00,,CLR,0.01,VWS V14.01,2013-01-07 20:30:00,
2013-01-07 15:33:00,38.5,25.0,30.38,SW,229,0.0,10.0,58,0.01,,CLR,0.01,VWS V14.01,2013-01-07 20:33:00,
2013-01-07 15:38:00,38.7,25.6,30.38,SE,127,2.5,10.0,59,0.01,,CLR,0.01,VWS V14.01,2013-01-07 20:38:00,
2013-01-07 15:43:00,38.7,25.2,30.38,SSW,200,2.5,11.2,58,0.00,,CLR,0.01,VWS V14.01,2013-01-07 20:43:00,
2013-01-07 15:45:00,37.5,25.3,30.36,SE,134,1.2,3.8,61,0.01,,CLR,0.02,VWS V14.01,2013-01-07 20:45:00,
2013-01-07 15:48:00,38.5,25.4,30.38,SE,127,3.8,11.2,59,0.00,,CLR,0.01,VWS V14.01,2013-01-07 20:48:00,
2013-01-07 15:53:00,38.7,25.6,30.38,SSE,160,3.8,11.2,59,0.00,,CLR,0.01,VWS V14.01,2013-01-07 20:53:00,
2013-01-07 15:58:00,38.7,24.8,30.38,SE,138,1.2,5.0,57,0.00,,CLR,0.01,VWS V14.01,2013-01-07 20:58:00,
2013-01-07 16:00:00,36.3,25.3,30.35,SSE,148,2.5,7.5,64,0.01,,CLR,0.02,VWS V14.01,2013-01-07 21:00:00,
2013-01-07 16:03:00,38.7,25.2,30.38,SE,143,0.0,8.8,58,0.00,,CLR,0.01,VWS V14.01,2013-01-07 21:03:00,
2013-01-07 16:08:00,38.6,25.1,30.38,South,179,5.0,8.8,58,0.00,,CLR,0.01,VWS V14.01,2013-01-07 21:08:00,
2013-01-07 16:13:00,38.8,26.1,30.38,SE,145,1.2,10.0,60,0.00,,CLR,0.01,VWS V14.01,2013-01-07 21:13:00,
2013-01-07 16:15:00,35.4,24.8,30.35,SW,218,2.5,7.5,65,0.01,,CLR,0.02,VWS V14.01,2013-01-07 21:15:00,
2013-01-07 16:18:00,39.0,25.5,30.37,ENE,75,1.2,10.0,58,0.00,,CLR,0.01,VWS V14.01,2013-01-07 21:18:00,
2013-01-07 16:23:00,38.6,26.7,30.37,East,88,2.5,10.0,62,0.00,,CLR,0.01,VWS V14.01,2013-01-07 21:23:00,
2013-01-07 16:28:00,38.2,25.5,30.37,NE,56,1.2,3.8,60,0.00,,CLR,0.01,VWS V14.01,2013-01-07 21:28:00,
2013-01-07 16:30:00,30.5,23.9,30.35,NNE,25,1.2,1.2,76,0.00,,-RA,0.02,VWS V14.01,2013-01-07 21:30:00,
2013-01-07 16:36:00,37.9,25.7,30.36,ESE,122,0.0,3.8,61,0.01,,CLR,0.02,VWS V14.01,2013-01-07 21:36:00,
2013-01-07 16:41:00,37.5,25.3,30.36,SSE,150,1.2,1.2,61,0.01,,CLR,0.02,VWS V14.01,2013-01-07 21:41:00,
2013-01-07 16:45:00,33.0,24.6,30.35,NE,46,0.0,7.5,71,0.01,,CLR,0.02,VWS V14.01,2013-01-07 21:45:00,
2013-01-07 16:46:00,37.2,25.4,30.36,ESE,108,2.5,5.0,62,0.01,,CLR,0.02,VWS V14.01,2013-01-07 21:46:00,
2013-01-07 16:51:00,36.7,24.5,30.35,NE,55,2.5,7.5,61,0.01,,CLR,0.02,VWS V14.01,2013-01-07 21:51:00,
2013-01-07 16:56:00,36.3,25.3,30.35,ESE,109,2.5,2.5,64,0.01,,CLR,0.02,VWS V14.01,2013-01-07 21:56:00,
2013-01-07 17:00:00,32.0,24.3,30.34,NNE,32,0.0,0.0,73,0.00,,CLR,0.02,VWS V14.01,2013-01-07 22:00:00,
2013-01-07 17:01:00,35.9,24.5,30.35,SSE,152,3.8,7.5,63,0.01,,CLR,0.02,VWS V14.01,2013-01-07 22:01:00,
2013-01-07 17:06:00,35.6,24.6,30.35,South,191,1.2,7.5,64,0.01,,CLR,0.02,VWS V14.01,2013-01-07 22:06:00,
2013-01-07 17:11:00,35.4,24.8,30.35,SW,215,2.5,2.5,65,0.01,,CLR,0.02,VWS V14.01,2013-01-07 22:11:00,
2013-01-07 17:15:00,31.2,24.2,30.35,NNE,32,0.0,0.0,75,0.00,,CLR,0.02,VWS V14.01,2013-01-07 22:15:00,
2013-01-07 17:16:00,35.1,25.3,30.35,SE,145,1.2,7.5,67,0.01,,CLR,0.02,VWS V14.01,2013-01-07 22:16:00,
2013-01-07 17:21:00,34.8,25.0,30.35,WNW,284,0.0,7.5,67,0.01,,CLR,0.02,VWS V14.01,2013-01-07 22:21:00,
2013-01-07 17:27:00,34.7,24.9,30.35,NE,46,0.0,7.5,67,0.01,,CLR,0.02,VWS V14.01,2013-01-07 22:27:00,
2013-01-07 17:30:00,30.5,23.9,30.35,NNE,25,1.2,1.2,76,0.00,,CLR,0.02,VWS V14.01,2013-01-07 22:30:00,
2013-01-07 17:32:00,33.6,24.5,30.34,NE,45,0.0,7.5,69,0.01,,CLR,0.02,VWS V14.01,2013-01-07 22:32:00,
2013-01-07 17:37:00,33.2,24.5,30.34,NE,46,0.0,7.5,70,0.01,,CLR,0.02,VWS V14.01,2013-01-07 22:37:00,
2013-01-07 17:42:00,32.8,24.5,30.35,NE,46,0.0,0.0,71,0.00,,CLR,0.02,VWS V14.01,2013-01-07 22:42:00,
2013-01-07 17:45:00,29.5,23.8,30.35,NNE,25,0.0,1.2,79,0.00,,CLR,0.02,VWS V14.01,2013-01-07 22:45:00,
2013-01-07 17:47:00,32.4,24.4,30.35,NNE,32,0.0,0.0,72,0.00,,CLR,0.02,VWS V14.01,2013-01-07 22:47:00,
2013-01-07 17:52:00,32.1,24.4,30.35,NNE,31,0.0,0.0,73,0.00,,CLR,0.02,VWS V14.01,2013-01-07 22:52:00,
2013-01-07 17:57:00,31.9,24.2,30.35,NNE,32,0.0,0.0,73,0.00,,CLR,0.02,VWS V14.01,2013-01-07 22:57:00,
2013-01-07 18:00:00,29.4,23.7,30.35,ESE,114,0.0,0.0,79,0.00,,CLR,0.02,VWS V14.01,2013-01-07 23:00:00,
2013-01-07 18:02:00,31.6,24.3,30.35,NNE,32,0.0,0.0,74,0.00,,CLR,0.02,VWS V14.01,2013-01-07 23:02:00,
2013-01-07 18:07:00,31.4,24.1,30.35,NNE,31,0.0,0.0,74,0.00,,CLR,0.02,VWS V14.01,2013-01-07 23:07:00,
2013-01-07 18:12:00,31.1,24.1,30.35,NNE,32,0.0,1.2,75,0.00,,CLR,0.02,VWS V14.01,2013-01-07 23:12:00,
2013-01-07 18:15:00,29.3,23.9,30.35,SSE,150,0.0,0.0,80,0.00,,CLR,0.02,VWS V14.01,2013-01-07 23:15:00,
2013-01-07 18:17:00,30.9,23.9,30.34,NNE,32,0.0,1.2,75,0.00,,CLR,0.02,VWS V14.01,2013-01-07 23:17:00,
2013-01-07 18:22:00,30.7,24.0,30.35,NNE,31,0.0,1.2,76,0.00,,CLR,0.02,VWS V14.01,2013-01-07 23:22:00,
2013-01-07 18:27:00,30.4,24.1,30.35,NNE,26,0.0,1.2,77,0.00,,CLR,0.02,VWS V14.01,2013-01-07 23:27:00,
2013-01-07 18:30:00,29.3,23.9,30.35,SW,222,0.0,0.0,80,0.00,,CLR,0.02,VWS V14.01,2013-01-07 23:30:00,
2013-01-07 18:32:00,30.1,23.8,30.35,NNE,26,0.0,1.2,77,0.00,,CLR,0.02,VWS V14.01,2013-01-07 23:32:00,
2013-01-07 18:37:00,29.7,23.7,30.35,NNE,25,0.0,1.2,78,0.00,,CLR,0.02,VWS V14.01,2013-01-07 23:37:00,
2013-01-07 18:42:00,29.5,23.8,30.35,NNE,27,0.0,0.0,79,0.00,,CLR,0.02,VWS V14.01,2013-01-07 23:42:00,
2013-01-07 18:45:00,29.7,24.3,30.35,SSE,155,1.2,1.2,80,0.00,,CLR,0.02,VWS V14.01,2013-01-07 23:45:00,
2013-01-07 18:47:00,29.6,23.9,30.35,ESE,112,0.0,0.0,79,0.00,,CLR,0.02,VWS V14.01,2013-01-07 23:47:00,
2013-01-07 18:52:00,29.5,23.8,30.35,ESE,111,0.0,0.0,79,0.00,,CLR,0.02,VWS V14.01,2013-01-07 23:52:00,
2013-01-07 18:57:00,29.4,23.7,30.35,SE,124,0.0,0.0,79,0.00,,CLR,0.02,VWS V14.01,2013-01-07 23:57:00,
2013-01-07 19:00:00,29.0,23.6,30.33,East,84,1.2,2.5,80,0.00,,CLR,0.02,VWS V14.01,2013-01-08 00:00:00,
2013-01-07 19:02:00,29.3,23.9,30.35,SE,139,0.0,0.0,80,0.00,,CLR,0.02,VWS V14.01,2013-01-08 00:02:00,
2013-01-07 19:07:00,29.3,23.9,30.35,SSE,149,0.0,0.0,80,0.00,,CLR,0.02,VWS V14.01,2013-01-08 00:07:00,
2013-01-07 19:12:00,29.3,23.9,30.35,SW,216,0.0,0.0,80,0.00,,CLR,0.02,VWS V14.01,2013-01-08 00:12:00,
2013-01-07 19:15:00,27.8,23.3,30.32,ESE,115,0.0,2.5,83,0.00,,CLR,0.02,VWS V14.01,2013-01-08 00:15:00,
2013-01-07 19:17:00,29.4,24.0,30.35,SW,215,0.0,0.0,80,0.00,,CLR,0.02,VWS V14.01,2013-01-08 00:17:00,
2013-01-07 19:22:00,29.4,24.0,30.36,SW,222,0.0,0.0,80,0.00,,CLR,0.02,VWS V14.01,2013-01-08 00:22:00,
2013-01-07 19:27:00,29.3,23.9,30.35,SW,221,0.0,0.0,80,0.00,,CLR,0.02,VWS V14.01,2013-01-08 00:27:00,
2013-01-07 19:30:00,27.1,23.2,30.32,SSW,205,0.0,2.5,85,0.00,,CLR,0.02,VWS V14.01,2013-01-08 00:30:00,
2013-01-07 19:32:00,29.4,24.3,30.35,SE,134,0.0,0.0,81,0.00,,CLR,0.02,VWS V14.01,2013-01-08 00:32:00,
2013-01-07 19:37:00,29.6,24.2,30.35,SE,139,0.0,1.2,80,0.00,,CLR,0.02,VWS V14.01,2013-01-08 00:37:00,
2013-01-07 19:42:00,29.7,24.6,30.35,SE,132,1.2,1.2,81,0.00,,CLR,0.02,VWS V14.01,2013-01-08 00:42:00,
2013-01-07 19:45:00,27.7,23.5,30.32,ESE,119,1.2,2.5,84,0.00,,CLR,0.02,VWS V14.01,2013-01-08 00:45:00,
2013-01-07 19:47:00,29.6,24.2,30.34,SE,143,0.0,1.2,80,0.00,,CLR,0.02,VWS V14.01,2013-01-08 00:47:00,
2013-01-07 19:52:00,29.3,23.9,30.33,ESE,102,0.0,2.5,80,0.00,,CLR,0.02,VWS V14.01,2013-01-08 00:52:00,
2013-01-07 19:57:00,28.7,23.3,30.32,East,87,1.2,2.5,80,0.00,,CLR,0.02,VWS V14.01,2013-01-08 00:57:00,
2013-01-07 20:00:00,28.3,23.8,30.32,SSE,148,1.2,3.8,83,0.00,,CLR,0.02,VWS V14.01,2013-01-08 01:00:00,
2013-01-07 20:02:00,28.2,23.4,30.32,ESE,107,0.0,2.5,82,0.00,,CLR,0.02,VWS V14.01,2013-01-08 01:02:00,
2013-01-07 20:07:00,27.9,23.4,30.33,SE,142,0.0,2.5,83,0.00,,CLR,0.02,VWS V14.01,2013-01-08 01:07:00,
2013-01-07 20:12:00,27.7,23.2,30.32,ESE,117,0.0,2.5,83,0.00,,CLR,0.02,VWS V14.01,2013-01-08 01:12:00,
2013-01-07 20:15:00,28.3,23.5,30.32,SE,145,2.5,3.8,82,0.00,,CLR,0.02,VWS V14.01,2013-01-08 01:15:00,
2013-01-07 20:17:00,27.3,23.1,30.32,South,170,0.0,2.5,84,0.00,,CLR,0.02,VWS V14.01,2013-01-08 01:17:00,
2013-01-07 20:22:00,27.0,22.8,30.32,SW,236,0.0,2.5,84,0.00,,CLR,0.02,VWS V14.01,2013-01-08 01:22:00,
2013-01-07 20:27:00,27.1,23.2,30.32,SSE,158,1.2,1.2,85,0.00,,CLR,0.02,VWS V14.01,2013-01-08 01:27:00,
2013-01-07 20:30:00,28.4,23.6,30.30,SSE,159,2.5,3.8,82,0.00,,CLR,0.02,VWS V14.01,2013-01-08 01:30:00,
2013-01-07 20:32:00,27.3,23.1,30.32,SSE,152,1.2,2.5,84,0.00,,CLR,0.02,VWS V14.01,2013-01-08 01:32:00,
2013-01-07 20:37:00,27.7,23.5,30.31,SE,127,1.2,2.5,84,0.00,,CLR,0.02,VWS V14.01,2013-01-08 01:37:00,
2013-01-07 20:42:00,27.7,23.5,30.32,SE,124,2.5,2.5,84,0.00,,CLR,0.02,VWS V14.01,2013-01-08 01:42:00,
2013-01-07 20:45:00,28.3,23.5,30.30,SE,142,2.5,3.8,82,0.00,,CLR,0.02,VWS V14.01,2013-01-08 01:45:00,
2013-01-07 20:47:00,28.1,23.9,30.32,SSE,150,1.2,3.8,84,0.00,,CLR,0.02,VWS V14.01,2013-01-08 01:47:00,
2013-01-07 20:52:00,28.2,23.7,30.32,SE,124,1.2,3.8,83,0.00,,CLR,0.02,VWS V14.01,2013-01-08 01:52:00,
2013-01-07 20:57:00,28.3,23.8,30.31,SE,142,0.0,3.8,83,0.00,,CLR,0.02,VWS V14.01,2013-01-08 01:57:00,
2013-01-07 21:00:00,28.4,23.6,30.30,SSE,152,2.5,5.0,82,0.00,,CLR,0.02,VWS V14.01,2013-01-08 02:00:00,
2013-01-07 21:02:00,28.5,24.0,30.32,SSE,152,1.2,3.8,83,0.00,,CLR,0.02,VWS V14.01,2013-01-08 02:02:00,
2013-01-07 21:07:00,28.5,23.7,30.31,SE,145,1.2,3.8,82,0.00,,CLR,0.02,VWS V14.01,2013-01-08 02:07:00,
2013-01-07 21:12:00,28.3,23.8,30.32,SE,131,1.2,3.8,83,0.00,,CLR,0.02,VWS V14.01,2013-01-08 02:12:00,
2013-01-07 21:15:00,28.2,23.4,30.30,SSE,148,2.5,5.0,82,0.00,,CLR,0.02,VWS V14.01,2013-01-08 02:15:00,
2013-01-07 21:17:00,28.6,23.8,30.31,ESE,113,2.5,3.8,82,0.00,,CLR,0.02,VWS V14.01,2013-01-08 02:17:00,
2013-01-07 21:22:00,28.5,23.7,30.31,ESE,108,2.5,3.8,82,0.00,,CLR,0.02,VWS V14.01,2013-01-08 02:22:00,
2013-01-07 21:27:00,28.4,23.6,30.30,SE,135,1.2,3.8,82,0.00,,CLR,0.02,VWS V14.01,2013-01-08 02:27:00,
2013-01-07 21:30:00,28.6,23.8,30.31,SSE,165,2.5,5.0,82,0.00,,CLR,0.02,VWS V14.01,2013-01-08 02:30:00,
2013-01-07 21:32:00,28.3,23.5,30.30,SSE,152,2.5,3.8,82,0.00,,CLR,0.02,VWS V14.01,2013-01-08 02:32:00,
2013-01-07 21:37:00,28.4,23.9,30.30,South,186,3.8,3.8,83,0.00,,CLR,0.02,VWS V14.01,2013-01-08 02:37:00,
2013-01-07 21:42:00,28.3,23.5,30.30,SE,144,2.5,3.8,82,0.00,,CLR,0.02,VWS V14.01,2013-01-08 02:42:00,
2013-01-07 21:45:00,29.1,24.0,30.31,SSE,152,2.5,3.8,81,0.00,,CLR,0.02,VWS V14.01,2013-01-08 02:45:00,
2013-01-07 21:47:00,28.4,23.6,30.30,SSE,152,2.5,5.0,82,0.00,,CLR,0.02,VWS V14.01,2013-01-08 02:47:00,
2013-01-07 21:52:00,28.4,23.6,30.30,SSE,148,2.5,5.0,82,0.00,,CLR,0.02,VWS V14.01,2013-01-08 02:52:00,
2013-01-07 21:57:00,28.4,23.6,30.30,SSE,156,2.5,3.8,82,0.00,,CLR,0.02,VWS V14.01,2013-01-08 02:57:00,
2013-01-07 22:00:00,29.3,23.9,30.31,SSE,158,2.5,5.0,80,0.00,,CLR,0.02,VWS V14.01,2013-01-08 03:00:00,
2013-01-07 22:02:00,28.4,23.6,30.30,SE,142,2.5,5.0,82,0.00,,CLR,0.02,VWS V14.01,2013-01-08 03:02:00,
2013-01-07 22:07:00,28.2,23.1,30.30,SE,133,2.5,5.0,81,0.00,,CLR,0.02,VWS V14.01,2013-01-08 03:07:00,
2013-01-07 22:12:00,28.1,23.3,30.30,SSE,159,2.5,3.8,82,0.00,,CLR,0.02,VWS V14.01,2013-01-08 03:12:00,
2013-01-07 22:15:00,29.4,24.0,30.31,South,187,2.5,3.8,80,0.00,,CLR,0.02,VWS V14.01,2013-01-08 03:15:00,
2013-01-07 22:17:00,28.4,23.6,30.30,SSE,152,2.5,3.8,82,0.00,,CLR,0.02,VWS V14.01,2013-01-08 03:17:00,
2013-01-07 22:22:00,28.4,23.6,30.31,SE,145,0.0,5.0,82,0.00,,CLR,0.02,VWS V14.01,2013-01-08 03:22:00,
2013-01-07 22:27:00,28.7,23.9,30.31,South,172,2.5,3.8,82,0.00,,CLR,0.02,VWS V14.01,2013-01-08 03:27:00,
2013-01-07 22:30:00,28.8,23.7,30.30,SE,142,0.0,3.8,81,0.00,,CLR,0.02,VWS V14.01,2013-01-08 03:30:00,
2013-01-07 22:32:00,28.8,23.7,30.31,SSE,156,2.5,3.8,81,0.00,,CLR,0.02,VWS V14.01,2013-01-08 03:32:00,
2013-01-07 22:37:00,29.0,23.9,30.31,SSE,153,3.8,3.8,81,0.00,,CLR,0.02,VWS V14.01,2013-01-08 03:37:00,
2013-01-07 22:42:00,29.1,24.0,30.31,SE,128,2.5,3.8,81,0.00,,CLR,0.02,VWS V14.01,2013-01-08 03:42:00,
2013-01-07 22:45:00,28.6,23.5,30.30,SE,142,1.2,2.5,81,0.00,,CLR,0.02,VWS V14.01,2013-01-08 03:45:00,
2013-01-07 22:47:00,29.1,24.0,30.31,SSE,160,2.5,5.0,81,0.00,,CLR,0.02,VWS V14.01,2013-01-08 03:47:00,
2013-01-07 22:52:00,29.3,24.2,30.31,SE,135,0.0,5.0,81,0.00,,CLR,0.02,VWS V14.01,2013-01-08 03:52:00,
2013-01-07 22:57:00,29.3,23.9,30.31,SSE,153,2.5,3.8,80,0.00,,CLR,0.02,VWS V14.01,2013-01-08 03:57:00,
2013-01-07 23:00:00,28.4,23.6,30.29,SSE,153,2.5,2.5,82,0.00,,CLR,0.02,VWS V14.01,2013-01-08 04:00:00,
2013-01-07 23:02:00,29.4,24.0,30.31,SSE,150,1.2,3.8,80,0.00,,CLR,0.02,VWS V14.01,2013-01-08 04:02:00,
2013-01-07 23:04:00,28.2,23.4,30.29,SSE,159,1.2,3.8,82,0.00,,,0.02,VWS V14.01,2013-01-08 04:04:00,
2013-01-07 23:05:00,28.1,23.3,30.29,SSE,150,0.0,3.8,82,0.00,,,0.02,VWS V14.01,2013-01-08 04:05:00,
2013-01-07 23:07:00,29.4,24.0,30.31,SSE,159,1.2,3.8,80,0.00,,CLR,0.02,VWS V14.01,2013-01-08 04:07:00,
2013-01-07 23:08:00,28.1,23.3,30.29,SSE,152,1.2,3.8,82,0.00,,,0.02,VWS V14.01,2013-01-08 04:08:00,
2013-01-07 23:09:00,28.0,23.2,30.29,SE,145,1.2,3.8,82,0.00,,,0.02,VWS V14.01,2013-01-08 04:09:00,
2013-01-07 23:10:00,28.1,23.3,30.29,SSE,150,1.2,3.8,82,0.00,,,0.02,VWS V14.01,2013-01-08 04:10:00,
2013-01-07 23:11:00,28.1,23.3,30.29,SSE,156,1.2,3.8,82,0.00,,,0.02,VWS V14.01,2013-01-08 04:11:00,
2013-01-07 23:12:00,29.3,23.9,30.31,SSE,155,1.2,3.8,80,0.00,,CLR,0.02,VWS V14.01,2013-01-08 04:12:00,
2013-01-07 23:15:00,28.0,23.5,30.28,SSE,148,1.2,3.8,83,0.00,,CLR,0.02,VWS V14.01,2013-01-08 04:15:00,
2013-01-07 23:17:00,29.3,23.9,30.30,SSE,149,1.2,3.8,80,0.00,,CLR,0.02,VWS V14.01,2013-01-08 04:17:00,
2013-01-07 23:22:00,28.9,23.8,30.30,SE,135,0.0,3.8,81,0.00,,CLR,0.02,VWS V14.01,2013-01-08 04:22:00,
2013-01-07 23:27:00,28.7,23.6,30.30,SSE,149,1.2,1.2,81,0.00,,CLR,0.02,VWS V14.01,2013-01-08 04:27:00,
2013-01-07 23:30:00,27.8,23.3,30.28,SSE,152,0.0,2.5,83,0.00,,CLR,0.02,VWS V14.01,2013-01-08 04:30:00,
2013-01-07 23:32:00,28.6,23.5,30.30,SSE,149,1.2,2.5,81,0.00,,,0.02,VWS V14.01,2013-01-08 04:32:00,
2013-01-07 23:37:00,28.6,23.8,30.30,SE,142,1.2,2.5,82,0.00,,,0.02,VWS V14.01,2013-01-08 04:37:00,
2013-01-07 23:42:00,28.6,23.8,30.30,SSE,151,1.2,2.5,82,0.00,,,0.02,VWS V14.01,2013-01-08 04:42:00,
2013-01-07 23:45:00,28.1,23.6,30.29,SSE,160,5.0,5.0,83,0.00,,CLR,0.02,VWS V14.01,2013-01-08 04:45:00,
2013-01-07 23:47:00,28.4,23.6,30.30,SE,143,1.2,2.5,82,0.00,,,0.02,VWS V14.01,2013-01-08 04:47:00,
2013-01-07 23:52:00,28.4,23.6,30.29,SE,143,0.0,2.5,82,0.00,,,0.02,VWS V14.01,2013-01-08 04:52:00,
2013-01-07 23:57:00,28.3,23.5,30.29,SE,134,0.0,3.8,82,0.00,,,0.02,VWS V14.01,2013-01-08 04:57:00,